createdAt,value
2022-08-09T00:02:57.804Z,99967.06
2022-08-09T00:08:01.442Z,99969.03
2022-08-09T00:13:06.705Z,99976.06
2022-08-09T00:18:22.157Z,99978.56
2022-08-09T00:23:55.553Z,99976.25
2022-08-09T00:28:52.181Z,99974.06
2022-08-09T00:33:57.841Z,99983.34
2022-08-09T00:39:01.016Z,99977.13
2022-08-09T00:44:10.446Z,99980.69
2022-08-09T00:49:25.096Z,99974.72
2022-08-09T00:54:35.251Z,99968.78
2022-08-09T00:59:46.594Z,99974.66
2022-08-09T01:05:03.257Z,99979.56
2022-08-09T01:10:17.073Z,99970.22
2022-08-09T01:15:25.486Z,99976.03
2022-08-09T01:20:41.188Z,99974.44
2022-08-09T01:26:02.043Z,99982.41
2022-08-09T01:31:11.196Z,99981.19
2022-08-09T01:36:35.962Z,99986.38
2022-08-09T01:41:53.563Z,99979.19
2022-08-09T01:47:03.028Z,99978.53
2022-08-09T01:52:10.269Z,99988.91
2022-08-09T01:57:16.658Z,99993.88
2022-08-09T02:02:23.917Z,99991.38
2022-08-09T02:08:39.693Z,99993.78
2022-08-09T02:13:04.168Z,100000.75
2022-08-09T02:18:10.940Z,100005.41
2022-08-09T02:23:18.454Z,99999.84
2022-08-09T02:28:26.264Z,100008.50
2022-08-09T02:33:38.443Z,100000.88
2022-08-09T02:39:04.173Z,100007.75
2022-08-09T02:44:28.981Z,100002.19
2022-08-09T02:49:41.420Z,100009.34
2022-08-09T02:54:54.265Z,100016.91
2022-08-09T03:00:21.195Z,100015.94
2022-08-09T03:05:26.983Z,100017.63
2022-08-09T03:10:31.051Z,100006.47
2022-08-09T03:16:04.547Z,100008.94
2022-08-09T03:21:00.544Z,100004.09
2022-08-09T03:26:05.118Z,100008.97
2022-08-09T03:31:10.339Z,100011.03
2022-08-09T03:36:28.134Z,100019.97
2022-08-09T03:41:46.036Z,100022.81
2022-08-09T03:46:52.013Z,100022.44
2022-08-09T03:52:00.082Z,100026.91
2022-08-09T03:57:18.638Z,100027.88
2022-08-09T04:02:27.604Z,100016.91
2022-08-09T04:07:51.135Z,100032.91
2022-08-09T04:12:55.915Z,100026.59
2022-08-09T04:18:00.736Z,100028.81
2022-08-09T04:23:09.767Z,100033.66
2022-08-09T04:28:13.147Z,100029.97
2022-08-09T04:33:16.117Z,100039.50
2022-08-09T04:38:20.493Z,100033.03
2022-08-09T04:43:25.276Z,100039.19
2022-08-09T04:48:33.396Z,100039.38
2022-08-09T04:53:38.297Z,100039.16
2022-08-09T04:58:42.422Z,100053.47
2022-08-09T05:03:45.538Z,100051.88
2022-08-09T05:08:52.568Z,100051.63
2022-08-09T05:14:05.942Z,100056.72
2022-08-09T05:19:09.267Z,100064.78
2022-08-09T05:24:13.706Z,100067.41
2022-08-09T05:29:21.648Z,100070.19
2022-08-09T05:34:30.678Z,100071.06
2022-08-09T05:39:42.542Z,100067.31
2022-08-09T05:44:47.717Z,100074.19
2022-08-09T05:50:24.349Z,100084.81
2022-08-09T05:55:21.195Z,100084.56
2022-08-09T06:00:25.068Z,100083.13
2022-08-09T06:05:49.758Z,100086.13
2022-08-09T06:10:55.132Z,100080.22
2022-08-09T06:15:58.137Z,100088.75
2022-08-09T06:21:06.503Z,100087.84
2022-08-09T06:26:10.948Z,100091.22
2022-08-09T06:31:14.000Z,100087.94
2022-08-09T06:36:17.006Z,100091.69
2022-08-09T06:41:23.375Z,100098.31
2022-08-09T06:46:48.196Z,100087.72
2022-08-09T06:51:52.848Z,100090.06
2022-08-09T06:56:57.303Z,100099.16
2022-08-09T07:02:03.533Z,100096.91
2022-08-09T07:07:07.563Z,100095.66
2022-08-09T07:12:17.847Z,100100.22
2022-08-09T07:17:21.980Z,100105.31
2022-08-09T07:22:34.396Z,100098.38
2022-08-09T07:27:42.966Z,100107.84
2022-08-09T07:32:56.079Z,100112.44
2022-08-09T07:37:59.217Z,100116.88
2022-08-09T07:43:14.769Z,100110.97
2022-08-09T07:48:25.776Z,100122.56
2022-08-09T07:54:01.652Z,100109.88
2022-08-09T07:58:59.860Z,100122.03
2022-08-09T08:04:03.888Z,100114.91
2022-08-09T08:09:18.321Z,100103.88
2022-08-09T08:14:38.400Z,100111.28
2022-08-09T08:19:41.535Z,100105.34
2022-08-09T08:24:49.336Z,100100.31
2022-08-09T08:29:56.396Z,100103.97
2022-08-09T08:35:00.120Z,100102.75
2022-08-09T08:40:03.329Z,100101.97
2022-08-09T08:45:11.825Z,100106.38
2022-08-09T08:50:19.926Z,100104.97
2022-08-09T08:55:24.508Z,100105.03
2022-08-09T09:00:34.366Z,100101.38
2022-08-09T09:06:00.833Z,100104.63
2022-08-09T09:11:04.136Z,100094.78
2022-08-09T09:16:09.532Z,100093.03
2022-08-09T09:21:14.847Z,100094.69
2022-08-09T09:26:18.575Z,100102.06
2022-08-09T09:32:05.887Z,100103.22
2022-08-09T09:36:54.086Z,100103.69
2022-08-09T09:41:59.105Z,100088.34
2022-08-09T09:47:09.620Z,100093.75
2022-08-09T09:52:16.736Z,100087.44
2022-08-09T09:58:02.226Z,100078.06
2022-08-09T10:03:09.098Z,100082.34
2022-08-09T10:08:28.031Z,100099.44
2022-08-09T10:13:45.137Z,100091.59
2022-08-09T10:18:56.399Z,100072.63
2022-08-09T10:24:05.116Z,100081.91
2022-08-09T10:29:38.039Z,100075.31
2022-08-09T10:34:35.842Z,100074.03
2022-08-09T10:39:49.116Z,100062.66
2022-08-09T10:44:59.462Z,100078.13
2022-08-09T10:50:16.361Z,100085.34
2022-08-09T10:55:25.687Z,100075.03
2022-08-09T11:00:56.856Z,100073.78
2022-08-09T11:06:24.548Z,100071.97
2022-08-09T11:12:07.003Z,100078.56
2022-08-09T11:17:53.735Z,100058.81
2022-08-09T11:23:10.347Z,100057.41
2022-08-09T11:28:54.688Z,100043.78
2022-08-09T11:34:05.070Z,100048.44
2022-08-09T11:39:12.155Z,100053.69
2022-08-09T11:44:16.115Z,100045.63
2022-08-09T11:49:28.047Z,100047.50
2022-08-09T11:54:34.697Z,100056.06
2022-08-09T11:59:38.220Z,100046.97
2022-08-09T12:04:41.820Z,100036.09
2022-08-09T12:09:50.577Z,100023.38
2022-08-09T12:15:08.008Z,100028.09
2022-08-09T12:20:19.832Z,100024.91
2022-08-09T12:25:35.644Z,100028.22
2022-08-09T12:30:42.104Z,100030.69
2022-08-09T12:35:47.918Z,100012.84
2022-08-09T12:40:55.012Z,100027.19
2022-08-09T12:46:00.621Z,100024.81
2022-08-09T12:51:04.525Z,100021.88
2022-08-09T12:56:37.114Z,100020.94
2022-08-09T13:01:47.087Z,100019.03
2022-08-09T13:06:54.161Z,100022.56
2022-08-09T13:12:03.052Z,100013.91
2022-08-09T13:17:08.667Z,100006.09
2022-08-09T13:22:37.280Z,100013.81
2022-08-09T13:27:48.914Z,100022.66
2022-08-09T13:32:58.699Z,100010.88
2022-08-09T13:38:03.484Z,100004.66
2022-08-09T13:43:10.279Z,100002.66
2022-08-09T13:48:18.576Z,99993.97
2022-08-09T13:53:21.745Z,99991.38
2022-08-09T13:58:45.070Z,99995.53
2022-08-09T14:04:02.404Z,100002.63
2022-08-09T14:09:09.230Z,100002.69
2022-08-09T14:14:23.377Z,100005.38
2022-08-09T14:19:33.284Z,100006.84
2022-08-09T14:24:36.651Z,99998.56
2022-08-09T14:30:35.287Z,100004.13
2022-08-09T14:35:14.415Z,100010.63
2022-08-09T14:40:18.526Z,100001.13
2022-08-09T14:46:55.884Z,100010.63
2022-08-09T14:51:06.473Z,100009.34
2022-08-09T14:56:13.247Z,99999.72
2022-08-09T15:01:17.861Z,99992.44
2022-08-09T15:06:23.702Z,99986.56
2022-08-09T15:11:28.734Z,99988.25
2022-08-09T15:16:34.135Z,99977.84
2022-08-09T15:21:54.982Z,99984.25
2022-08-09T15:27:00.804Z,99976.97
2022-08-09T15:32:05.949Z,99970.09
2022-08-09T15:37:56.869Z,99969.50
2022-08-09T15:43:02.630Z,99973.53
2022-08-09T15:48:28.413Z,99956.59
2022-08-09T15:54:05.213Z,99956.81
2022-08-09T15:58:54.537Z,99969.34
2022-08-09T16:03:58.875Z,99965.69
2022-08-09T16:09:03.343Z,99965.50
2022-08-09T16:14:08.459Z,99962.31
2022-08-09T16:19:14.683Z,99965.50
2022-08-09T16:24:33.753Z,99966.63
2022-08-09T16:29:49.934Z,99964.56
2022-08-09T16:34:59.510Z,99953.25
2022-08-09T16:40:06.838Z,99961.63
2022-08-09T16:45:10.684Z,99961.22
2022-08-09T16:50:29.656Z,99954.56
2022-08-09T16:55:58.254Z,99950.25
2022-08-09T17:00:57.158Z,99957.75
2022-08-09T17:06:08.264Z,99959.50
2022-08-09T17:11:41.302Z,99968.63
2022-08-09T17:16:45.560Z,99970.56
2022-08-09T17:21:55.476Z,99978.13
2022-08-09T17:26:58.963Z,99968.88
2022-08-09T17:32:02.174Z,99965.00
2022-08-09T17:37:07.539Z,99976.94
2022-08-09T17:42:51.425Z,99976.16
2022-08-09T17:47:49.690Z,99971.44
2022-08-09T17:52:59.420Z,99965.78
2022-08-09T17:58:05.490Z,99967.69
2022-08-09T18:03:12.035Z,99973.94
2022-08-09T18:08:16.838Z,99972.13
2022-08-09T18:13:53.529Z,99978.09
2022-08-09T18:18:49.084Z,99976.50
2022-08-09T18:24:10.522Z,99974.84
2022-08-09T18:30:41.837Z,99982.50
2022-08-09T18:34:39.740Z,99987.22
2022-08-09T18:39:46.103Z,99997.88
2022-08-09T18:44:51.609Z,99993.66
2022-08-09T18:49:56.094Z,100000.03
2022-08-09T18:55:13.872Z,100008.72
2022-08-09T19:00:20.314Z,100013.94
2022-08-09T19:05:41.394Z,100019.09
2022-08-09T19:10:48.772Z,100032.66
2022-08-09T19:15:56.332Z,100035.19
2022-08-09T19:21:00.743Z,100040.94
2022-08-09T19:26:07.141Z,100036.41
2022-08-09T19:31:14.913Z,100041.91
2022-08-09T19:36:23.263Z,100044.38
2022-08-09T19:41:35.861Z,100047.44
2022-08-09T19:46:50.515Z,100055.75
2022-08-09T19:51:57.027Z,100052.56
2022-08-09T19:57:01.659Z,100053.44
2022-08-09T20:03:23.876Z,100069.78
2022-08-09T20:07:33.900Z,100065.78
2022-08-09T20:12:53.879Z,100064.44
2022-08-09T20:17:59.571Z,100073.25
2022-08-09T20:23:02.706Z,100063.09
2022-08-09T20:28:07.240Z,100063.88
2022-08-09T20:33:15.946Z,100076.69
2022-08-09T20:38:33.110Z,100071.88
2022-08-09T20:43:44.680Z,100069.19
2022-08-09T20:48:48.045Z,100063.50
2022-08-09T20:53:51.205Z,100062.44
2022-08-09T20:58:58.645Z,100066.38
2022-08-09T21:04:08.346Z,100063.88
2022-08-09T21:09:41.673Z,100071.34
2022-08-09T21:14:49.712Z,100067.25
2022-08-09T21:20:17.244Z,100077.06
2022-08-09T21:25:44.161Z,100078.56
2022-08-09T21:31:00.980Z,100081.44
2022-08-09T21:36:23.261Z,100082.38
2022-08-09T21:42:05.854Z,100082.72
2022-08-09T21:46:56.527Z,100084.50
2022-08-09T21:52:05.913Z,100087.88
2022-08-09T21:57:37.184Z,100089.69
2022-08-09T22:02:43.115Z,100094.00
2022-08-09T22:07:51.799Z,100099.16
2022-08-09T22:12:55.790Z,100106.94
2022-08-09T22:18:00.197Z,100111.69
2022-08-09T22:23:04.808Z,100111.38
2022-08-09T22:28:08.031Z,100100.91
2022-08-09T22:33:12.420Z,100110.16
2022-08-09T22:38:20.581Z,100118.09
2022-08-09T22:44:01.845Z,100112.59
2022-08-09T22:48:50.512Z,100116.63
2022-08-09T22:54:02.953Z,100113.09
2022-08-09T22:59:57.857Z,100124.34
2022-08-09T23:04:32.739Z,100109.53
2022-08-09T23:09:36.176Z,100109.69
2022-08-09T23:14:42.237Z,100117.97
2022-08-09T23:20:06.260Z,100107.56
2022-08-09T23:25:10.979Z,100103.19
2022-08-09T23:30:14.307Z,100103.66
2022-08-09T23:35:18.788Z,100109.31
2022-08-09T23:40:21.908Z,100094.84
2022-08-09T23:45:36.994Z,100108.09
2022-08-09T23:50:42.932Z,100110.81
2022-08-09T23:55:49.447Z,100102.75
